Portada
Imágenes satélite Pronóstico 15 díasClimaPredicción Marítima Ciclones Rayo AeropuertosFAQ Noticias Acerca
El tiempo : Europa África América del Norte América del Sur Asia Australia-Oceanía Otros
Idiomas Contacto

Humberside, Inglaterra

latitud: 53-35N, longitud: 000-21W, altitud: 31 m


METAR: EGNJ 312320Z 21007KT 9999 FEW046 16/15 Q1009
short-TAF: EGNJ 311755Z 3118/3121 26006KT 9999 FEW020 SCT030 PROB40 TEMPO 3118/3121 7000 SHRA TSRA
long-TAF: falta

Hora: 00:38 (23:38 UTC)

Observación

El informe se hizo hace 18 minutos, a las 23:20 UTC  
Viento 07 kt del sur-suroeste
Temperatura 16°C
Humedad 94%
Presión 1009 hPa
Visibilidad 10 km o más
Escasas nubes a una altura de 4600 ft

Cambiar las unidades

Pronóstico

El informe se hizo hace 5 horas y 40 minutos, a las 17:58 UTC  
Pronóstico válido del 31 a las 18 UTC al 31 a las 21 UTC
Viento 06 kt del oeste
Visibilidad 10 km o más
Escasas nubes a una altura de 2000 ft
Nubes dispersas a una altura de 3000 ft
Probabilidad 40% :
Temporalmente
del 31 a las 18 UTC al 31 a las 21 UTC
Visibilidad 7000 m
chaparrones de lluvia y tormenta lluvia
La información que se ofrece en estas páginas está sujeta a una cláusula de exención de responsabilidad
El tiempo : Europa África América del Norte América del Sur Asia Australia-Oceanía Otros
Imágenes satélite Pronóstico 15 díasClimaPredicción Marítima Ciclones Rayo AeropuertosFAQ Idiomas Contacto Noticias Acerca